createdAt,value
2022-10-17T00:02:23.759Z,13.77
2022-10-17T00:04:50.235Z,13.78
2022-10-17T00:07:16.630Z,13.69
2022-10-17T00:09:43.927Z,13.73
2022-10-17T00:12:10.606Z,13.69
2022-10-17T00:14:37.194Z,13.73
2022-10-17T00:17:03.561Z,13.74
2022-10-17T00:19:29.901Z,13.76
2022-10-17T00:21:56.340Z,13.73
2022-10-17T00:24:22.675Z,13.71
2022-10-17T00:26:48.990Z,13.81
2022-10-17T00:29:15.349Z,13.78
2022-10-17T00:31:41.914Z,13.71
2022-10-17T00:34:08.252Z,13.69
2022-10-17T00:36:34.924Z,13.67
2022-10-17T00:39:01.282Z,13.70
2022-10-17T00:41:31.123Z,13.73
2022-10-17T00:44:02.012Z,13.63
2022-10-17T00:46:34.126Z,13.66
2022-10-17T00:49:05.968Z,13.65
2022-10-17T00:51:41.614Z,13.64
2022-10-17T00:54:09.703Z,13.65
2022-10-17T00:56:36.849Z,13.60
2022-10-17T00:59:03.503Z,13.50
2022-10-17T01:01:30.092Z,13.48
2022-10-17T01:03:56.519Z,13.46
2022-10-17T01:06:22.878Z,13.43
2022-10-17T01:08:49.338Z,13.38
2022-10-17T01:11:49.733Z,13.40
2022-10-17T01:14:31.795Z,13.40
2022-10-17T01:17:05.783Z,13.40
2022-10-17T01:19:59.300Z,13.35
2022-10-17T01:22:36.903Z,13.25
2022-10-17T01:25:17.418Z,13.22
2022-10-17T01:28:11.504Z,13.16
2022-10-17T01:30:55.256Z,13.14
2022-10-17T01:33:27.678Z,13.04
2022-10-17T01:36:09.454Z,12.95
2022-10-17T01:38:43.411Z,12.93
2022-10-17T01:41:28.742Z,12.95
2022-10-17T01:44:17.635Z,12.91
2022-10-17T01:46:49.684Z,12.90
2022-10-17T01:49:20.590Z,12.83
2022-10-17T01:51:51.590Z,12.82
2022-10-17T01:54:23.099Z,12.78
2022-10-17T01:56:56.500Z,12.79
2022-10-17T01:59:27.020Z,12.77
2022-10-17T02:01:56.226Z,12.74
2022-10-17T02:04:23.277Z,12.72
2022-10-17T02:06:49.666Z,12.69
2022-10-17T02:09:25.110Z,12.67
2022-10-17T02:12:16.262Z,12.63
2022-10-17T02:15:03.185Z,12.59
2022-10-17T02:17:42.711Z,12.63
2022-10-17T02:20:17.851Z,12.62
2022-10-17T02:22:54.065Z,12.58
2022-10-17T02:25:38.762Z,12.59
2022-10-17T02:28:14.156Z,12.60
2022-10-17T02:30:48.117Z,12.57
2022-10-17T02:33:35.427Z,12.49
2022-10-17T02:36:08.738Z,12.43
2022-10-17T02:38:35.597Z,12.45
2022-10-17T02:41:03.549Z,12.45
2022-10-17T02:43:30.207Z,12.41
2022-10-17T02:45:57.352Z,12.41
2022-10-17T02:48:38.680Z,12.53
2022-10-17T02:51:16.828Z,12.52
2022-10-17T02:54:24.416Z,12.46
2022-10-17T02:56:56.473Z,12.43
2022-10-17T02:59:25.902Z,12.46
2022-10-17T03:01:52.932Z,12.50
2022-10-17T03:04:19.481Z,12.52
2022-10-17T03:06:48.069Z,12.51
2022-10-17T03:09:14.907Z,12.39
2022-10-17T03:11:41.358Z,12.33
2022-10-17T03:14:07.700Z,12.33
2022-10-17T03:16:34.134Z,12.21
2022-10-17T03:19:00.470Z,12.18
2022-10-17T03:21:26.827Z,12.15
2022-10-17T03:23:53.233Z,12.12
2022-10-17T03:26:19.651Z,12.14
2022-10-17T03:28:47.625Z,12.09
2022-10-17T03:31:17.478Z,11.99
2022-10-17T03:33:43.839Z,11.95
2022-10-17T03:36:13.644Z,11.93
2022-10-17T03:38:40.373Z,11.91
2022-10-17T03:41:07.534Z,11.88
2022-10-17T03:43:33.962Z,11.85
2022-10-17T03:46:01.534Z,11.80
2022-10-17T03:48:29.575Z,11.81
2022-10-17T03:51:03.854Z,11.79
2022-10-17T03:53:30.335Z,11.81
2022-10-17T03:55:57.744Z,11.81
2022-10-17T03:58:24.122Z,11.75
2022-10-17T04:00:50.531Z,11.83
2022-10-17T04:03:17.288Z,11.80
2022-10-17T04:05:43.839Z,11.86
2022-10-17T04:08:10.244Z,11.95
2022-10-17T04:10:36.599Z,11.91
2022-10-17T04:13:03.007Z,11.88
2022-10-17T04:15:29.433Z,11.74
2022-10-17T04:17:55.838Z,11.73
2022-10-17T04:20:22.329Z,11.73
2022-10-17T04:22:48.663Z,11.72
2022-10-17T04:25:15.138Z,11.68
2022-10-17T04:27:41.552Z,11.71
2022-10-17T04:30:08.146Z,11.63
2022-10-17T04:32:38.006Z,11.51
2022-10-17T04:35:04.840Z,11.40
2022-10-17T04:37:31.284Z,11.29
2022-10-17T04:39:57.636Z,11.22
2022-10-17T04:42:24.020Z,11.12
2022-10-17T04:44:50.352Z,11.10
2022-10-17T04:47:16.739Z,11.07
2022-10-17T04:49:43.082Z,11.02
2022-10-17T04:52:09.398Z,11.04
2022-10-17T04:54:35.749Z,11.05
2022-10-17T04:57:02.083Z,11.05
2022-10-17T04:59:29.828Z,11.03
2022-10-17T05:01:56.172Z,11.09
2022-10-17T05:04:24.812Z,11.09
2022-10-17T05:06:51.363Z,11.09
2022-10-17T05:09:17.759Z,11.08
2022-10-17T05:11:44.182Z,11.03
2022-10-17T05:14:10.548Z,11.03
2022-10-17T05:16:36.953Z,10.98
2022-10-17T05:19:03.662Z,10.94
2022-10-17T05:21:30.507Z,10.88
2022-10-17T05:23:57.324Z,10.91
2022-10-17T05:26:24.576Z,10.96
2022-10-17T05:28:52.519Z,10.94
2022-10-17T05:31:19.203Z,10.86
2022-10-17T05:33:45.668Z,10.87
2022-10-17T05:36:12.023Z,10.90
2022-10-17T05:38:38.408Z,10.90
2022-10-17T05:41:06.029Z,10.92
2022-10-17T05:43:33.441Z,10.90
2022-10-17T05:46:04.089Z,10.91
2022-10-17T05:48:30.527Z,10.84
2022-10-17T05:50:59.206Z,10.79
2022-10-17T05:53:25.683Z,10.77
2022-10-17T05:56:02.761Z,10.73
2022-10-17T05:58:49.233Z,10.64
2022-10-17T06:01:16.483Z,10.59
2022-10-17T06:03:42.868Z,10.60
2022-10-17T06:06:12.411Z,10.62
2022-10-17T06:08:39.149Z,10.66
2022-10-17T06:11:09.172Z,10.80
2022-10-17T06:13:37.110Z,11.03
2022-10-17T06:16:03.485Z,11.21
2022-10-17T06:18:29.824Z,11.36
2022-10-17T06:21:03.516Z,11.64
2022-10-17T06:23:29.991Z,11.90
2022-10-17T06:26:01.299Z,12.04
2022-10-17T06:28:27.890Z,12.06
2022-10-17T06:30:54.349Z,12.22
2022-10-17T06:33:21.453Z,12.25
2022-10-17T06:35:54.707Z,12.65
2022-10-17T06:38:21.746Z,12.98
2022-10-17T06:40:48.220Z,13.09
2022-10-17T06:43:14.795Z,13.16
2022-10-17T06:45:41.829Z,13.10
2022-10-17T06:48:08.565Z,13.21
2022-10-17T06:50:35.169Z,13.19
2022-10-17T06:53:01.617Z,13.24
2022-10-17T06:55:28.060Z,13.37
2022-10-17T06:57:55.934Z,13.57
2022-10-17T07:00:23.957Z,13.76
2022-10-17T07:02:50.437Z,14.03
2022-10-17T07:05:17.249Z,13.82
2022-10-17T07:07:44.842Z,14.20
2022-10-17T07:10:12.804Z,14.71
2022-10-17T07:12:39.302Z,15.37
2022-10-17T07:15:06.094Z,15.94
2022-10-17T07:17:32.689Z,16.32
2022-10-17T07:19:59.108Z,16.34
2022-10-17T07:22:25.567Z,16.08
2022-10-17T07:24:52.029Z,16.08
2022-10-17T07:27:18.472Z,15.95
2022-10-17T07:29:44.936Z,16.08
2022-10-17T07:32:11.309Z,16.08
2022-10-17T07:34:37.939Z,16.25
2022-10-17T07:37:06.843Z,16.32
2022-10-17T07:39:35.615Z,16.26
2022-10-17T07:42:02.325Z,16.11
2022-10-17T07:44:28.749Z,16.11
2022-10-17T07:46:55.175Z,16.09
2022-10-17T07:49:21.644Z,16.08
2022-10-17T07:51:49.886Z,15.95
2022-10-17T07:54:17.721Z,16.16
2022-10-17T07:56:50.263Z,16.39
2022-10-17T07:59:18.547Z,16.90
2022-10-17T08:01:45.032Z,16.93
2022-10-17T08:04:12.429Z,17.14
2022-10-17T08:06:39.766Z,17.55
2022-10-17T08:09:06.631Z,17.42
2022-10-17T08:11:33.043Z,17.20
2022-10-17T08:13:59.495Z,17.15
2022-10-17T08:16:26.021Z,16.91
2022-10-17T08:18:53.754Z,16.73
2022-10-17T08:21:20.193Z,16.61
2022-10-17T08:23:46.636Z,16.10
2022-10-17T08:26:16.623Z,16.63
2022-10-17T08:28:44.287Z,15.97
2022-10-17T08:31:13.191Z,16.25
2022-10-17T08:33:40.713Z,16.40
2022-10-17T08:36:08.931Z,16.69
2022-10-17T08:38:38.514Z,17.19
2022-10-17T08:41:13.698Z,17.26
2022-10-17T08:43:49.236Z,17.51
2022-10-17T08:48:49.871Z,17.72
2022-10-17T08:51:22.879Z,17.61
2022-10-17T08:53:51.857Z,17.99
2022-10-17T08:59:18.867Z,18.36
2022-10-17T09:02:01.315Z,18.43
2022-10-17T09:04:49.298Z,18.65
2022-10-17T09:07:30.876Z,18.66
2022-10-17T09:10:03.149Z,18.42
2022-10-17T09:12:43.948Z,18.42
2022-10-17T09:15:26.534Z,19.03
2022-10-17T09:18:03.393Z,18.94
2022-10-17T09:20:47.474Z,18.38
2022-10-17T09:23:21.910Z,17.64
2022-10-17T09:25:52.238Z,17.90
2022-10-17T09:28:35.957Z,18.05
2022-10-17T09:31:06.826Z,18.17
2022-10-17T09:33:55.879Z,17.80
2022-10-17T09:36:24.987Z,18.29
2022-10-17T09:38:58.224Z,18.28
2022-10-17T09:41:45.240Z,18.37
2022-10-17T09:44:43.763Z,18.40
2022-10-17T09:47:30.751Z,18.46
2022-10-17T09:49:57.835Z,18.25
2022-10-17T09:52:33.756Z,18.84
2022-10-17T09:55:15.639Z,19.92
2022-10-17T09:58:11.635Z,19.94
2022-10-17T10:00:44.343Z,20.55
2022-10-17T10:03:24.115Z,19.95
2022-10-17T10:06:01.180Z,19.56
2022-10-17T10:08:37.132Z,19.38
2022-10-17T10:11:07.857Z,20.02
2022-10-17T10:13:36.080Z,20.37
2022-10-17T10:16:30.439Z,20.90
2022-10-17T10:18:58.120Z,20.40
2022-10-17T10:21:27.505Z,20.01
2022-10-17T10:24:06.680Z,20.10
2022-10-17T10:26:43.827Z,19.97
2022-10-17T10:29:31.263Z,20.31
2022-10-17T10:32:19.154Z,20.64
2022-10-17T10:34:59.338Z,21.02
2022-10-17T10:37:29.720Z,21.37
2022-10-17T10:40:15.579Z,22.35
2022-10-17T10:42:42.418Z,22.64
2022-10-17T10:45:35.947Z,21.92
2022-10-17T10:48:24.686Z,22.15
2022-10-17T10:51:14.822Z,22.29
2022-10-17T10:53:56.020Z,23.02
2022-10-17T10:56:35.095Z,21.86
2022-10-17T10:59:52.970Z,21.78
2022-10-17T11:02:27.459Z,21.26
2022-10-17T11:05:12.079Z,22.23
2022-10-17T11:07:45.459Z,23.64
2022-10-17T11:10:22.946Z,24.73
2022-10-17T11:13:10.624Z,25.77
2022-10-17T11:15:42.727Z,27.02
2022-10-17T11:18:22.321Z,27.11
2022-10-17T11:20:57.608Z,27.93
2022-10-17T11:23:38.396Z,28.81
2022-10-17T11:26:13.251Z,28.43
2022-10-17T11:28:39.801Z,28.64
2022-10-17T11:31:12.949Z,28.13
2022-10-17T11:33:39.317Z,28.36
2022-10-17T11:36:08.991Z,27.94
2022-10-17T11:38:47.834Z,28.91
2022-10-17T11:41:20.899Z,28.73
2022-10-17T11:43:53.102Z,28.13
2022-10-17T11:46:24.916Z,26.17
2022-10-17T11:49:41.856Z,26.56
2022-10-17T11:52:37.726Z,26.34
2022-10-17T11:55:20.373Z,25.34
2022-10-17T11:57:58.560Z,24.52
2022-10-17T12:00:55.006Z,25.57
2022-10-17T12:03:47.928Z,24.90
2022-10-17T12:06:29.492Z,25.75
2022-10-17T12:09:25.459Z,25.51
2022-10-17T12:11:57.427Z,26.04
2022-10-17T12:14:46.663Z,25.94
2022-10-17T12:17:22.344Z,26.81
2022-10-17T12:19:48.907Z,27.89
2022-10-17T12:22:19.667Z,27.41
2022-10-17T12:25:00.342Z,27.15
2022-10-17T12:27:37.018Z,28.40
2022-10-17T12:30:26.279Z,26.81
2022-10-17T12:33:06.711Z,25.41
2022-10-17T12:35:36.279Z,25.38
2022-10-17T12:38:13.813Z,26.26
2022-10-17T12:40:48.468Z,26.17
2022-10-17T12:43:17.913Z,26.26
2022-10-17T12:46:10.786Z,25.93
2022-10-17T12:48:37.160Z,25.37
2022-10-17T12:51:34.797Z,25.31
2022-10-17T12:54:14.924Z,25.22
2022-10-17T12:56:44.466Z,23.98
2022-10-17T12:59:16.355Z,25.03
2022-10-17T13:01:46.557Z,25.67
2022-10-17T13:04:13.374Z,25.41
2022-10-17T13:06:54.116Z,25.34
2022-10-17T13:09:32.543Z,25.81
2022-10-17T13:12:02.677Z,25.73
2022-10-17T13:14:32.490Z,26.08
2022-10-17T13:17:04.536Z,25.36
2022-10-17T13:19:42.048Z,25.73
2022-10-17T13:22:16.703Z,25.62
2022-10-17T13:24:43.382Z,25.09
2022-10-17T13:27:30.949Z,24.45
2022-10-17T13:29:59.576Z,24.65
2022-10-17T13:32:36.027Z,24.59
2022-10-17T13:35:14.815Z,24.88
2022-10-17T13:37:43.511Z,25.47
2022-10-17T13:40:44.716Z,25.32
2022-10-17T13:43:19.868Z,26.08
2022-10-17T13:45:55.066Z,27.09
2022-10-17T13:48:27.165Z,28.29
2022-10-17T13:51:00.386Z,28.75
2022-10-17T13:53:33.323Z,27.73
2022-10-17T13:56:33.940Z,27.78
2022-10-17T13:59:07.986Z,27.93
2022-10-17T14:01:34.772Z,28.96
2022-10-17T14:04:11.651Z,29.77
2022-10-17T14:06:49.283Z,28.92
2022-10-17T14:09:22.594Z,29.07
2022-10-17T14:12:12.522Z,28.87
2022-10-17T14:15:05.252Z,30.48
2022-10-17T14:17:29.790Z,31.14
2022-10-17T14:23:10.583Z,29.08
2022-10-17T14:25:40.175Z,29.41
2022-10-17T14:28:12.658Z,28.91
2022-10-17T14:30:56.158Z,29.58
2022-10-17T14:33:24.024Z,29.01
2022-10-17T14:35:55.615Z,28.92
2022-10-17T14:38:22.872Z,27.84
2022-10-17T14:41:30.307Z,26.26
2022-10-17T14:44:04.576Z,25.73
2022-10-17T14:46:31.228Z,24.41
2022-10-17T14:49:20.497Z,23.60
2022-10-17T14:52:18.796Z,23.14
2022-10-17T14:54:56.112Z,23.65
2022-10-17T14:57:27.984Z,23.89
2022-10-17T14:59:57.636Z,24.51
2022-10-17T15:02:29.898Z,23.78
2022-10-17T15:04:56.845Z,23.66
2022-10-17T15:07:23.869Z,23.75
2022-10-17T15:09:53.122Z,24.12
2022-10-17T15:12:22.776Z,24.45
2022-10-17T15:14:49.476Z,24.38
2022-10-17T15:17:20.760Z,24.12
2022-10-17T15:19:48.490Z,23.76
2022-10-17T15:22:16.060Z,23.59
2022-10-17T15:24:42.598Z,22.75
2022-10-17T15:27:16.607Z,21.96
2022-10-17T15:29:43.058Z,21.40
2022-10-17T15:32:09.515Z,21.00
2022-10-17T15:34:35.874Z,20.66
2022-10-17T15:37:04.851Z,20.41
2022-10-17T15:39:31.316Z,20.13
2022-10-17T15:41:58.697Z,19.84
2022-10-17T15:44:25.094Z,19.71
2022-10-17T15:46:51.567Z,19.56
2022-10-17T15:49:19.647Z,19.42
2022-10-17T15:51:51.701Z,19.29
2022-10-17T15:54:21.775Z,19.14
2022-10-17T15:56:53.950Z,18.97
2022-10-17T15:59:25.874Z,18.86
2022-10-17T16:01:52.476Z,18.88
2022-10-17T16:04:18.949Z,18.79
2022-10-17T16:06:45.476Z,18.62
2022-10-17T16:09:11.911Z,18.48
2022-10-17T16:11:41.411Z,18.33
2022-10-17T16:14:15.238Z,18.18
2022-10-17T16:16:41.766Z,17.88
2022-10-17T16:19:08.475Z,17.70
2022-10-17T16:21:39.783Z,17.59
2022-10-17T16:24:06.473Z,17.50
2022-10-17T16:26:32.966Z,17.44
2022-10-17T16:29:02.753Z,17.42
2022-10-17T16:31:33.059Z,17.33
2022-10-17T16:34:01.391Z,17.28
2022-10-17T16:36:28.090Z,17.19
2022-10-17T16:38:54.578Z,17.08
2022-10-17T16:41:29.903Z,17.01
2022-10-17T16:43:58.806Z,16.92
2022-10-17T16:46:26.811Z,16.88
2022-10-17T16:48:53.827Z,16.93
2022-10-17T16:51:20.731Z,16.95
2022-10-17T16:53:50.099Z,16.89
2022-10-17T16:56:18.741Z,16.79
2022-10-17T16:58:46.015Z,16.69
2022-10-17T17:01:15.418Z,16.61
2022-10-17T17:03:43.339Z,16.60
2022-10-17T17:06:14.318Z,16.61
2022-10-17T17:08:42.063Z,16.57
2022-10-17T17:11:10.416Z,16.49
2022-10-17T17:13:37.635Z,16.39
2022-10-17T17:16:05.449Z,16.37
2022-10-17T17:18:32.154Z,16.29
2022-10-17T17:21:04.781Z,16.25
2022-10-17T17:23:33.764Z,16.27
2022-10-17T17:26:11.758Z,16.22
2022-10-17T17:28:39.156Z,16.14
2022-10-17T17:31:10.639Z,16.09
2022-10-17T17:33:39.049Z,16.12
2022-10-17T17:36:06.411Z,16.12
2022-10-17T17:38:35.691Z,16.13
2022-10-17T17:41:03.195Z,16.09
2022-10-17T17:43:30.148Z,15.97
2022-10-17T17:46:00.976Z,15.93
2022-10-17T17:48:27.339Z,15.83
2022-10-17T17:50:53.751Z,15.83
2022-10-17T17:53:20.096Z,15.84
2022-10-17T17:55:46.648Z,15.87
2022-10-17T17:58:13.288Z,15.84
2022-10-17T18:00:40.568Z,15.67
2022-10-17T18:03:07.380Z,15.82
2022-10-17T18:05:34.021Z,15.81
2022-10-17T18:08:00.369Z,15.78
2022-10-17T18:10:28.335Z,15.83
2022-10-17T18:12:54.698Z,15.79
2022-10-17T18:15:21.113Z,15.74
2022-10-17T18:17:47.761Z,15.82
2022-10-17T18:20:14.096Z,15.77
2022-10-17T18:22:40.515Z,15.78
2022-10-17T18:25:07.328Z,15.75
2022-10-17T18:27:33.891Z,15.77
2022-10-17T18:30:00.218Z,15.81
2022-10-17T18:32:31.098Z,15.76
2022-10-17T18:34:57.867Z,15.77
2022-10-17T18:37:24.289Z,15.69
2022-10-17T18:39:52.649Z,15.59
2022-10-17T18:42:18.988Z,15.51
2022-10-17T18:44:47.742Z,15.49
2022-10-17T18:47:14.143Z,15.44
2022-10-17T18:49:40.677Z,15.41
2022-10-17T18:52:07.055Z,15.37
2022-10-17T18:54:34.601Z,15.44
2022-10-17T18:57:01.229Z,15.38
2022-10-17T18:59:27.791Z,15.34
2022-10-17T19:01:54.321Z,15.31
2022-10-17T19:04:21.175Z,15.28
2022-10-17T19:06:48.519Z,15.20
2022-10-17T19:09:15.268Z,15.13
2022-10-17T19:11:43.252Z,15.12
2022-10-17T19:14:14.405Z,15.07
2022-10-17T19:16:46.664Z,15.06
2022-10-17T19:19:16.137Z,15.03
2022-10-17T19:21:42.950Z,14.97
2022-10-17T19:24:13.695Z,14.93
2022-10-17T19:26:41.265Z,14.93
2022-10-17T19:29:07.812Z,14.91
2022-10-17T19:31:35.652Z,14.94
2022-10-17T19:34:02.173Z,14.93
2022-10-17T19:36:33.654Z,14.88
2022-10-17T19:39:02.845Z,14.90
2022-10-17T19:41:29.411Z,14.80
2022-10-17T19:43:55.986Z,14.78
2022-10-17T19:46:24.935Z,14.76
2022-10-17T19:48:51.791Z,14.66
2022-10-17T19:51:20.736Z,14.63
2022-10-17T19:53:47.616Z,14.67
2022-10-17T19:56:14.171Z,14.71
2022-10-17T19:58:45.262Z,14.69
2022-10-17T20:01:26.726Z,14.66
2022-10-17T20:03:53.767Z,14.58
2022-10-17T20:06:21.397Z,14.52
2022-10-17T20:08:48.888Z,14.34
2022-10-17T20:11:22.370Z,14.50
2022-10-17T20:13:48.751Z,14.50
2022-10-17T20:16:23.069Z,14.53
2022-10-17T20:18:51.231Z,14.52
2022-10-17T20:21:25.083Z,14.50
2022-10-17T20:23:51.516Z,14.50
2022-10-17T20:26:38.617Z,14.44
2022-10-17T20:29:10.424Z,14.34
2022-10-17T20:31:39.391Z,14.30
2022-10-17T20:34:05.982Z,14.23
2022-10-17T20:36:36.522Z,14.28
2022-10-17T20:39:05.387Z,14.24
2022-10-17T20:41:31.805Z,14.31
2022-10-17T20:43:59.268Z,14.28
2022-10-17T20:49:17.567Z,14.19
2022-10-17T20:51:44.828Z,14.19
2022-10-17T20:54:12.594Z,14.20
2022-10-17T20:56:39.789Z,14.14
2022-10-17T20:59:10.594Z,14.11
2022-10-17T21:01:40.460Z,14.08
2022-10-17T21:04:33.456Z,14.18
2022-10-17T21:06:53.495Z,14.21
2022-10-17T21:09:20.325Z,14.32
2022-10-17T21:11:48.259Z,14.28
2022-10-17T21:14:16.659Z,14.27
2022-10-17T21:16:43.298Z,14.23
2022-10-17T21:19:11.529Z,14.28
2022-10-17T21:21:40.463Z,14.27
2022-10-17T21:24:12.864Z,14.26
2022-10-17T21:26:40.432Z,14.32
2022-10-17T21:29:07.788Z,14.24
2022-10-17T21:31:37.416Z,14.17
2022-10-17T21:34:27.694Z,14.09
2022-10-17T21:36:54.068Z,14.10
2022-10-17T21:39:21.844Z,14.15
2022-10-17T21:41:48.331Z,14.15
2022-10-17T21:44:20.841Z,14.10
2022-10-17T21:46:48.011Z,14.02
2022-10-17T21:49:17.322Z,14.04
2022-10-17T21:51:44.797Z,14.04
2022-10-17T21:54:11.423Z,14.08
2022-10-17T21:56:37.730Z,14.04
2022-10-17T21:59:04.829Z,14.00
2022-10-17T22:01:38.810Z,13.99
2022-10-17T22:04:07.771Z,13.95
2022-10-17T22:06:40.056Z,14.02
2022-10-17T22:09:10.067Z,14.10
2022-10-17T22:11:36.615Z,14.07
2022-10-17T22:14:10.732Z,14.04
2022-10-17T22:16:37.808Z,14.02
2022-10-17T22:19:06.655Z,14.00
2022-10-17T22:21:34.865Z,13.94
2022-10-17T22:24:04.444Z,13.88
2022-10-17T22:26:33.044Z,13.84
2022-10-17T22:28:59.657Z,13.78
2022-10-17T22:31:26.434Z,13.74
2022-10-17T22:33:55.964Z,13.68
2022-10-17T22:36:22.542Z,13.68
2022-10-17T22:38:48.890Z,13.64
2022-10-17T22:41:15.268Z,13.55
2022-10-17T22:43:41.598Z,13.55
2022-10-17T22:46:08.416Z,13.52
2022-10-17T22:48:35.193Z,13.49
2022-10-17T22:51:02.652Z,13.49
2022-10-17T22:53:29.913Z,13.43
2022-10-17T22:56:03.730Z,13.35
2022-10-17T22:58:31.457Z,13.25
2022-10-17T23:00:58.644Z,13.26
2022-10-17T23:03:27.282Z,13.25
2022-10-17T23:05:54.824Z,13.22
2022-10-17T23:08:21.333Z,13.16
2022-10-17T23:10:48.148Z,13.22
2022-10-17T23:13:15.858Z,13.17
2022-10-17T23:15:43.211Z,13.28
2022-10-17T23:18:10.259Z,13.26
2022-10-17T23:20:37.811Z,13.33
2022-10-17T23:23:04.803Z,13.25
2022-10-17T23:25:33.785Z,13.25
2022-10-17T23:28:00.749Z,13.24
2022-10-17T23:30:27.288Z,13.15
2022-10-17T23:32:53.776Z,13.10
2022-10-17T23:35:20.149Z,13.09
2022-10-17T23:37:46.512Z,13.10
2022-10-17T23:40:13.104Z,13.06
2022-10-17T23:42:39.568Z,13.04
2022-10-17T23:45:06.654Z,12.99
2022-10-17T23:47:33.375Z,12.93
2022-10-17T23:50:00.096Z,12.92
2022-10-17T23:52:26.482Z,12.92
2022-10-17T23:54:52.963Z,12.91
2022-10-17T23:57:19.474Z,12.90
2022-10-17T23:59:45.883Z,12.91
